Time;durP1;ratioP1;P1;durP2;ratioP2;P2;SDS_P1;SDS_P2;PMS_P1;PMS_P2;Temp;Humidity;BMP_temperature;BMP_pressure;BME280_temperature;BME280_humidity;BME280_pressure;Samples;Min_cycle;Max_cycle;Signal;HPM_P1;HPM_P2
2023/02/10 00:00:17;;;;;;;79.60;31.60;;;;;;;2.20;100.00;102474.44;5009521;28;20030;-76
2023/02/10 00:02:42;;;;;;;77.60;33.03;;;;;;;2.18;100.00;102469.25;4991821;28;20650;-78
2023/02/10 00:05:07;;;;;;;87.73;32.93;;;;;;;2.16;100.00;102467.59;4991674;28;20097;-77
2023/02/10 00:07:33;;;;;;;82.83;31.93;;;;;;;2.24;100.00;102476.88;5009421;28;20132;-78
2023/02/10 00:09:58;;;;;;;80.23;31.57;;;;;;;2.24;100.00;102478.66;5008437;28;20056;-77
2023/02/10 00:12:23;;;;;;;94.00;34.27;;;;;;;2.24;100.00;102483.94;5007773;28;20334;-77
2023/02/10 00:14:48;;;;;;;81.90;33.47;;;;;;;2.20;100.00;102475.31;5009124;28;20042;-76
2023/02/10 00:17:17;;;;;;;92.20;33.83;;;;;;;2.28;100.00;102489.00;4991231;28;20045;-76
2023/02/10 00:19:42;;;;;;;78.90;30.45;;;;;;;2.34;100.00;102493.13;4990334;28;20034;-77
2023/02/10 00:22:07;;;;;;;73.10;30.73;;;;;;;2.20;100.00;102477.94;5007450;28;20033;-76
2023/02/10 00:24:33;;;;;;;69.77;32.20;;;;;;;2.08;100.00;102474.06;5007675;28;20037;-77
2023/02/10 00:26:58;;;;;;;85.93;32.40;;;;;;;2.06;100.00;102472.38;4990308;28;20292;-77
2023/02/10 00:29:25;;;;;;;90.20;32.95;;;;;;;2.03;100.00;102469.88;4978565;28;20117;-76
2023/02/10 00:31:52;;;;;;;82.07;32.67;;;;;;;2.00;100.00;102465.63;4995395;28;20049;-78
2023/02/10 00:34:17;;;;;;;81.75;30.55;;;;;;;2.11;100.00;102473.06;5009605;28;20065;-78
2023/02/10 00:36:44;;;;;;;96.20;36.65;;;;;;;2.17;100.00;102482.47;4992678;28;20037;-76
2023/02/10 00:39:16;;;;;;;85.13;34.00;;;;;;;2.16;100.00;102472.88;4992977;28;20493;-76
2023/02/10 00:41:42;;;;;;;89.88;36.28;;;;;;;2.21;100.00;102478.81;4991900;28;20103;-78
2023/02/10 00:44:08;;;;;;;88.70;33.30;;;;;;;2.22;100.00;102483.97;4991369;28;20065;-77
2023/02/10 00:46:35;;;;;;;74.75;32.35;;;;;;;2.21;100.00;102486.72;5008409;28;20515;-78
2023/02/10 00:49:01;;;;;;;82.57;30.88;;;;;;;2.21;100.00;102486.72;4991339;28;20087;-77
2023/02/10 00:51:26;;;;;;;76.70;32.87;;;;;;;2.13;100.00;102471.22;4990586;28;20044;-77
2023/02/10 00:53:52;;;;;;;93.33;34.27;;;;;;;2.15;100.00;102487.81;5007613;28;20280;-77
2023/02/10 00:56:19;;;;;;;95.85;34.65;;;;;;;2.11;100.00;102480.97;4991136;28;20292;-78
2023/02/10 00:58:45;;;;;;;85.00;32.95;;;;;;;2.10;100.00;102480.09;4986264;28;20052;-76
2023/02/10 01:01:11;;;;;;;79.82;31.25;;;;;;;2.08;100.00;102473.19;4990823;28;20038;-77
2023/02/10 01:03:37;;;;;;;87.95;32.95;;;;;;;2.08;100.00;102487.25;4991172;28;20032;-76
2023/02/10 01:06:04;;;;;;;95.97;33.78;;;;;;;2.01;100.00;102480.47;4975441;28;20063;-78
2023/02/10 01:08:29;;;;;;;105.30;36.13;;;;;;;1.90;100.00;102488.00;5006357;28;20513;-78
2023/02/10 01:11:04;;;;;;;88.18;33.00;;;;;;;1.95;100.00;102491.28;5006206;28;20034;-77
2023/02/10 01:13:30;;;;;;;94.00;33.40;;;;;;;1.85;100.00;102482.03;4972143;28;20037;-78
2023/02/10 01:15:55;;;;;;;98.93;31.90;;;;;;;1.89;100.00;102494.19;4988020;28;20032;-77
2023/02/10 01:18:21;;;;;;;83.65;31.98;;;;;;;1.79;100.00;102484.94;4971942;28;20072;-77
2023/02/10 01:20:46;;;;;;;106.13;35.55;;;;;;;1.80;100.00;102481.38;5004326;28;20049;-77
2023/02/10 01:23:11;;;;;;;97.63;34.67;;;;;;;1.79;100.00;102485.81;4988147;28;20038;-78
2023/02/10 01:25:37;;;;;;;107.13;34.07;;;;;;;1.77;100.00;102486.78;5004090;28;20296;-76
2023/02/10 01:28:03;;;;;;;90.53;32.05;;;;;;;1.74;100.00;102487.78;4988240;28;20264;-76
2023/02/10 01:30:29;;;;;;;87.20;32.83;;;;;;;1.66;100.00;102480.19;5005798;28;20465;-80
2023/02/10 01:32:55;;;;;;;85.55;31.70;;;;;;;1.73;100.00;102487.81;4972175;28;20467;-77
2023/02/10 01:35:20;;;;;;;101.07;33.33;;;;;;;1.66;100.00;102484.56;4971832;28;20038;-77
2023/02/10 01:37:45;;;;;;;86.30;32.83;;;;;;;1.61;100.00;102474.22;5000709;28;20049;-77
2023/02/10 01:40:11;;;;;;;88.77;30.23;;;;;;;1.61;100.00;102473.38;5004188;28;20313;-76
2023/02/10 01:42:38;;;;;;;89.17;32.77;;;;;;;1.62;100.00;102481.22;5003917;28;20069;-76
2023/02/10 01:45:23;;;;;;;115.03;33.67;;;;;;;1.62;100.00;102472.47;4987976;28;20288;-77
2023/02/10 01:47:52;;;;;;;99.93;32.70;;;;;;;1.69;100.00;102487.97;4987846;28;20478;-77
2023/02/10 01:50:19;;;;;;;88.97;31.25;;;;;;;1.61;100.00;102483.91;4988000;28;20469;-76
2023/02/10 01:52:46;;;;;;;96.78;32.47;;;;;;;1.61;100.00;102495.28;5031330;23;20103;-88
2023/02/10 01:55:14;;;;;;;;;;;;;;;1.63;100.00;102496.09;4998418;28;20048;-89
2023/02/10 01:57:43;;;;;;;91.93;32.17;;;;;;;1.55;100.00;102490.28;5007810;28;19917;-88
2023/02/10 02:00:09;;;;;;;92.65;34.42;;;;;;;1.56;100.00;102499.91;4994580;28;20092;-88
2023/02/10 02:02:39;;;;;;;86.65;30.25;;;;;;;1.56;100.00;102491.16;5012861;28;20017;-88
2023/02/10 02:05:15;;;;;;;95.50;32.90;;;;;;;1.62;100.00;102496.19;4995805;28;20037;-88
2023/02/10 02:07:40;;;;;;;92.65;31.55;;;;;;;1.55;100.00;102492.94;4996041;28;20083;-88
2023/02/10 02:10:09;;;;;;;97.63;30.35;;;;;;;1.56;100.00;102494.63;5012164;28;20044;-88
2023/02/10 02:12:44;;;;;;;87.47;29.58;;;;;;;1.62;100.00;102493.53;4995644;28;20618;-88
2023/02/10 02:15:10;;;;;;;;;;;;;;;1.68;100.00;102494.13;5012606;28;20124;-88
2023/02/10 02:17:43;;;;;;;101.40;29.85;;;;;;;1.72;100.00;102496.66;5011558;28;20000;-88
2023/02/10 02:20:42;;;;;;;91.85;32.72;;;;;;;1.71;100.00;102502.81;5014873;28;20037;-88
2023/02/10 02:23:30;;;;;;;84.53;29.92;;;;;;;1.68;100.00;102498.53;5000392;28;20048;-88
2023/02/10 02:26:18;;;;;;;87.53;30.08;;;;;;;1.68;100.00;102494.13;5019810;28;20029;-88
2023/02/10 02:29:16;;;;;;;86.78;30.10;;;;;;;1.68;100.00;102480.97;5015977;28;20130;-86
2023/02/10 02:31:44;;;;;;;81.97;30.30;;;;;;;1.81;100.00;102498.91;5010266;28;20095;-89
2023/02/10 02:34:18;;;;;;;88.60;30.75;;;;;;;1.74;100.00;102492.19;5000201;28;20033;-88
2023/02/10 02:37:11;;;;;;;96.65;30.52;;;;;;;1.75;100.00;102486.84;4999697;28;20120;-88
2023/02/10 02:39:36;;;;;;;89.75;27.35;;;;;;;1.78;100.00;102477.94;4999621;28;20665;-89
2023/02/10 02:42:13;;;;;;;72.50;25.40;;;;;;;1.73;100.00;102474.66;5015695;28;20116;-89
2023/02/10 02:44:39;;;;;;;93.65;29.42;;;;;;;1.70;100.00;102473.00;5015853;28;20636;-88
2023/02/10 02:47:33;;;;;;;88.47;29.08;;;;;;;1.68;100.00;102478.31;5015638;28;20125;-89
2023/02/10 02:50:27;;;;;;;85.88;27.90;;;;;;;1.75;100.00;102488.63;4986075;28;20040;-88
2023/02/10 02:53:08;;;;;;;82.63;26.30;;;;;;;1.74;100.00;102486.91;5015221;28;20390;-89
2023/02/10 02:55:44;;;;;;;67.60;25.25;;;;;;;1.70;100.00;102486.19;5002045;28;20089;-87
2023/02/10 02:58:27;;;;;;;67.60;24.38;;;;;;;1.73;100.00;102487.81;5016411;28;20038;-88
2023/02/10 03:00:57;;;;;;;78.72;25.40;;;;;;;1.78;100.00;102493.75;5000057;28;20494;-89
2023/02/10 03:03:22;;;;;;;71.13;23.80;;;;;;;1.87;100.00;102486.34;4999093;28;20033;-89
2023/02/10 03:05:48;;;;;;;69.13;26.92;;;;;;;1.83;100.00;102476.84;5015342;28;20029;-89
2023/02/10 03:08:13;;;;;;;85.00;24.70;;;;;;;1.86;100.00;102484.63;4999146;28;20045;-89
2023/02/10 03:10:38;;;;;;;77.95;25.05;;;;;;;1.90;100.00;102486.22;4998827;28;20037;-89
2023/02/10 03:13:04;;;;;;;78.97;25.50;;;;;;;1.83;100.00;102473.38;5015569;28;20060;-88
2023/02/10 03:15:30;;;;;;;69.73;22.17;;;;;;;1.83;100.00;102470.75;5020110;28;20440;-87
2023/02/10 03:17:56;;;;;;;89.45;23.33;;;;;;;1.83;100.00;102468.13;4998431;28;20048;-89
2023/02/10 03:20:21;;;;;;;74.10;22.35;;;;;;;1.81;100.00;102470.78;4997042;28;20042;-88
2023/02/10 03:22:47;;;;;;;66.53;22.30;;;;;;;1.90;100.00;102474.84;4999079;28;20108;-89
2023/02/10 03:25:12;;;;;;;79.13;25.00;;;;;;;1.83;100.00;102471.59;5015468;28;20102;-89
2023/02/10 03:27:37;;;;;;;76.43;23.60;;;;;;;1.92;100.00;102486.16;4998661;28;20065;-89
2023/02/10 03:30:03;;;;;;;70.73;23.73;;;;;;;1.93;100.00;102477.34;5014759;28;20037;-89
2023/02/10 03:32:29;;;;;;;76.45;21.88;;;;;;;2.00;100.00;102493.75;5014930;28;20327;-88
2023/02/10 03:34:54;;;;;;;58.47;22.23;;;;;;;1.93;100.00;102479.97;5031574;28;20041;-88
2023/02/10 03:37:20;;;;;;;69.40;20.77;;;;;;;2.00;100.00;102488.47;5015275;28;20275;-89
2023/02/10 03:39:46;;;;;;;;;;;;;;;2.00;100.00;102494.59;4997659;28;20068;-89
2023/02/10 03:42:12;;;;;;;66.95;22.20;;;;;;;1.97;100.00;102483.34;4998724;28;19913;-89
2023/02/10 03:44:37;;;;;;;67.20;19.35;;;;;;;1.94;100.00;102480.81;4996205;28;20033;-89
2023/02/10 03:47:03;;;;;;;66.00;21.17;;;;;;;2.03;100.00;102486.53;5015494;28;20033;-89
2023/02/10 03:49:28;;;;;;;57.50;20.38;;;;;;;1.97;100.00;102475.44;5015803;28;20367;-88
2023/02/10 03:51:53;;;;;;;58.10;19.83;;;;;;;1.99;100.00;102471.81;5014604;28;20681;-88
2023/02/10 03:54:19;;;;;;;57.42;19.17;;;;;;;2.04;100.00;102477.75;4998897;28;20069;-87
2023/02/10 03:56:44;;;;;;;51.57;19.90;;;;;;;2.01;100.00;102480.47;4997985;28;20041;-88
2023/02/10 03:59:09;;;;;;;58.97;19.50;;;;;;;2.14;100.00;102480.84;5012532;28;20282;-88
2023/02/10 04:01:35;;;;;;;57.30;19.07;;;;;;;2.15;100.00;102481.69;5013966;28;20021;-88
2023/02/10 04:04:00;;;;;;;54.77;18.80;;;;;;;2.18;100.00;102489.44;5014230;28;20729;-89
2023/02/10 04:06:26;;;;;;;58.20;19.30;;;;;;;2.12;100.00;102487.94;4997933;28;20041;-88
2023/02/10 04:08:51;;;;;;;54.53;17.85;;;;;;;2.17;100.00;102485.13;5003525;28;20078;-89
2023/02/10 04:11:17;;;;;;;63.53;19.77;;;;;;;2.11;100.00;102476.56;5013147;28;20526;-88
2023/02/10 04:13:42;;;;;;;62.57;20.33;;;;;;;2.21;100.00;102478.81;4996063;28;20108;-89
2023/02/10 04:16:13;;;;;;;65.00;19.03;;;;;;;2.11;100.00;102466.00;5013721;28;20838;-88
2023/02/10 04:18:39;;;;;;;60.05;20.05;;;;;;;2.17;100.00;102485.13;5013388;28;20283;-88
2023/02/10 04:21:06;;;;;;;55.55;18.90;;;;;;;2.19;100.00;102478.00;5013229;28;20041;-88
2023/02/10 04:23:32;;;;;;;63.88;20.17;;;;;;;2.19;100.00;102472.75;5013533;28;20190;-89
2023/02/10 04:25:58;;;;;;;57.28;19.67;;;;;;;2.23;100.00;102485.72;4997193;28;20027;-89
2023/02/10 04:28:24;;;;;;;;;;;;;;;2.25;100.00;102489.16;4997526;28;20064;-89
2023/02/10 04:30:53;;;;;;;59.25;18.48;;;;;;;2.22;100.00;102472.59;5013258;28;19913;-88
2023/02/10 04:33:19;;;;;;;64.20;21.60;;;;;;;2.24;100.00;102490.06;4996998;28;20497;-88
2023/02/10 04:35:47;;;;;;;68.85;21.42;;;;;;;2.22;100.00;102476.06;4997010;28;20041;-89
2023/02/10 04:38:14;;;;;;;49.58;17.95;;;;;;;2.27;100.00;102482.03;4997518;28;20056;-89
2023/02/10 04:40:39;;;;;;;;;;;;;;;2.29;100.00;102484.59;4997911;28;20696;-89
2023/02/10 04:43:05;;;;;;;59.35;19.48;;;;;;;2.23;100.00;102484.88;4996874;28;19917;-88
2023/02/10 04:45:30;;;;;;;72.35;21.65;;;;;;;2.21;100.00;102489.34;4997562;28;20040;-88
2023/02/10 04:47:56;;;;;;;54.13;18.85;;;;;;;2.27;100.00;102491.69;4998069;28;20101;-89
2023/02/10 04:50:21;;;;;;;61.10;18.83;;;;;;;2.27;100.00;102496.97;4995207;28;20021;-88
2023/02/10 04:52:46;;;;;;;55.70;18.65;;;;;;;2.33;100.00;102499.34;5013976;28;20037;-89
2023/02/10 04:55:12;;;;;;;51.13;18.77;;;;;;;2.25;100.00;102491.78;5015023;28;20041;-88
2023/02/10 04:57:37;;;;;;;58.45;20.10;;;;;;;2.28;100.00;102486.38;4998600;28;20280;-89
2023/02/10 05:00:04;;;;;;;68.60;19.17;;;;;;;2.26;100.00;102484.72;5015293;28;20848;-89
2023/02/10 05:02:30;;;;;;;56.63;19.23;;;;;;;2.32;100.00;102479.19;4998194;28;20025;-88
2023/02/10 05:04:59;;;;;;;46.22;19.48;;;;;;;2.32;100.00;102484.47;4997637;28;20105;-89
2023/02/10 05:07:27;;;;;;;79.75;20.65;;;;;;;2.24;100.00;102470.75;5012368;28;20493;-89
2023/02/10 05:09:55;;;;;;;53.38;19.13;;;;;;;2.26;100.00;102474.19;4996572;28;20569;-89
2023/02/10 05:12:21;;;;;;;65.30;20.67;;;;;;;2.36;100.00;102488.66;4996508;28;20030;-90
2023/02/10 05:14:46;;;;;;;65.25;20.92;;;;;;;2.39;100.00;102483.28;5013078;28;20030;-90
2023/02/10 05:17:12;;;;;;;52.73;18.23;;;;;;;2.31;100.00;102483.59;5012247;28;20501;-89
2023/02/10 05:19:37;;;;;;;59.40;20.35;;;;;;;2.35;100.00;102489.59;4996432;28;20049;-89
2023/02/10 05:22:02;;;;;;;52.73;19.60;;;;;;;2.30;100.00;102489.78;4996240;28;20901;-89
2023/02/10 05:24:28;;;;;;;68.67;20.73;;;;;;;2.40;100.00;102506.06;5015117;23;21058;-74
2023/02/10 05:26:53;;;;;;;53.87;20.30;;;;;;;2.41;100.00;102505.16;5036593;28;20380;-73
2023/02/10 05:29:19;;;;;;;59.33;19.40;;;;;;;2.41;100.00;102509.56;5021732;28;20056;-74
2023/02/10 05:31:44;;;;;;;60.60;19.67;;;;;;;2.39;100.00;102507.00;4999447;28;20297;-74
2023/02/10 05:34:09;;;;;;;54.73;18.87;;;;;;;2.37;100.00;102514.13;4983721;28;20556;-74
2023/02/10 05:36:35;;;;;;;73.43;20.13;;;;;;;2.43;100.00;102518.25;4998511;28;20498;-74
2023/02/10 05:41:44;;;;;;;55.80;18.88;;;;;;;2.42;100.00;102524.47;5014169;28;20034;-73
2023/02/10 05:44:09;;;;;;;59.33;19.35;;;;;;;2.45;100.00;102521.69;5000849;28;20041;-73
2023/02/10 05:46:35;;;;;;;57.77;19.10;;;;;;;2.45;100.00;102514.63;4980755;28;20458;-73
2023/02/10 05:49:00;;;;;;;51.58;17.15;;;;;;;2.44;100.00;102510.28;5000926;28;20304;-74
2023/02/10 05:51:26;;;;;;;55.15;20.33;;;;;;;2.41;100.00;102505.16;4997654;28;20423;-73
2023/02/10 05:53:51;;;;;;;47.88;18.50;;;;;;;2.39;100.00;102501.72;4998137;28;20030;-74
2023/02/10 05:56:17;;;;;;;58.22;19.90;;;;;;;2.36;100.00;102499.22;5000004;28;20045;-74
2023/02/10 05:58:42;;;;;;;52.53;18.80;;;;;;;2.35;100.00;102505.41;4998722;28;20121;-74
2023/02/10 06:01:10;;;;;;;52.53;18.47;;;;;;;2.42;100.00;102509.50;4999879;28;20038;-74
2023/02/10 06:03:35;;;;;;;63.30;18.25;;;;;;;2.44;100.00;102518.19;4996811;28;20423;-74
2023/02/10 06:06:01;;;;;;;58.43;17.93;;;;;;;2.43;100.00;102518.25;4983054;28;20056;-74
2023/02/10 06:08:26;;;;;;;58.45;19.05;;;;;;;2.42;100.00;102520.03;4998723;28;20525;-73
2023/02/10 06:10:53;;;;;;;65.38;17.38;;;;;;;2.41;100.00;102510.44;4998554;28;20034;-74
2023/02/10 06:13:18;;;;;;;56.10;18.95;;;;;;;2.37;100.00;102514.13;4982544;28;20053;-74
2023/02/10 06:15:43;;;;;;;50.47;17.88;;;;;;;2.42;100.00;102522.69;4980914;28;20038;-74
2023/02/10 06:18:09;;;;;;;53.77;19.37;;;;;;;2.37;100.00;102514.13;5015847;28;20041;-73
2023/02/10 06:20:34;;;;;;;50.00;18.15;;;;;;;2.35;100.00;102517.75;5017710;28;20030;-73
2023/02/10 06:23:00;;;;;;;47.73;16.73;;;;;;;2.35;100.00;102523.88;5015555;28;20447;-74
2023/02/10 06:25:25;;;;;;;58.15;16.52;;;;;;;2.32;100.00;102521.38;4981176;28;20038;-74
2023/02/10 06:27:50;;;;;;;50.38;17.92;;;;;;;2.32;100.00;102532.75;4998347;28;20049;-74
2023/02/10 06:30:16;;;;;;;65.20;18.47;;;;;;;2.30;100.00;102534.59;4982608;28;20108;-73
2023/02/10 06:32:41;;;;;;;67.13;20.35;;;;;;;2.36;100.00;102544.03;4980573;28;20145;-73
2023/02/10 06:35:07;;;;;;;57.87;17.53;;;;;;;2.33;100.00;102530.97;5015353;28;20038;-73
2023/02/10 06:37:32;;;;;;;57.33;17.63;;;;;;;2.32;100.00;102542.47;4984703;28;20518;-74
2023/02/10 06:39:57;;;;;;;56.23;16.40;;;;;;;2.25;100.00;102546.28;4982888;28;20246;-73
2023/02/10 06:42:23;;;;;;;47.60;16.70;;;;;;;2.28;100.00;102548.78;4965883;28;20293;-73
2023/02/10 06:44:48;;;;;;;54.60;16.23;;;;;;;2.23;100.00;102541.06;4998830;28;20045;-74
2023/02/10 06:47:13;;;;;;;52.10;18.03;;;;;;;2.25;100.00;102551.56;5000075;28;20547;-74
2023/02/10 06:49:39;;;;;;;49.03;17.67;;;;;;;2.30;100.00;102560.97;4996246;28;20563;-74
2023/02/10 06:52:04;;;;;;;53.67;18.23;;;;;;;2.32;100.00;102566.19;4982152;28;20293;-73
2023/02/10 06:54:29;;;;;;;59.03;17.80;;;;;;;2.33;100.00;102571.38;4980483;28;20068;-74
2023/02/10 06:56:55;;;;;;;54.70;17.60;;;;;;;2.36;100.00;102572.16;5015086;28;20125;-73
2023/02/10 06:59:21;;;;;;;56.30;18.60;;;;;;;2.37;100.00;102572.13;4965392;28;20347;-74
2023/02/10 07:01:47;;;;;;;61.92;17.13;;;;;;;2.36;100.00;102570.38;4998508;28;20041;-74
2023/02/10 07:04:12;;;;;;;60.42;19.13;;;;;;;2.41;100.00;102578.09;4982131;28;20034;-74
2023/02/10 07:06:38;;;;;;;62.25;18.13;;;;;;;2.45;100.00;102584.97;4983257;28;20539;-74
2023/02/10 07:09:04;;;;;;;54.30;20.00;;;;;;;2.41;100.00;102573.69;4985965;28;20046;-74
2023/02/10 07:11:31;;;;;;;53.42;16.85;;;;;;;2.48;100.00;102576.91;4983688;28;20029;-73
2023/02/10 07:13:56;;;;;;;50.47;18.08;;;;;;;2.49;100.00;102571.59;5003578;28;20373;-74
2023/02/10 07:16:22;;;;;;;52.95;18.33;;;;;;;2.58;100.00;102585.31;4984971;28;20028;-74
2023/02/10 07:18:47;;;;;;;53.58;17.10;;;;;;;2.61;100.00;102590.44;5005046;28;20045;-73
2023/02/10 07:21:12;;;;;;;52.77;19.03;;;;;;;2.62;100.00;102579.84;5008025;28;20038;-73
2023/02/10 07:23:39;;;;;;;57.87;17.70;;;;;;;2.61;100.00;102577.25;4987942;28;20277;-73
2023/02/10 07:26:05;;;;;;;54.65;16.25;;;;;;;2.69;100.00;102589.19;5003237;28;20044;-74
2023/02/10 07:28:31;;;;;;;59.47;18.70;;;;;;;2.72;100.00;102594.34;5000978;28;20097;-74
2023/02/10 07:30:56;;;;;;;60.60;19.30;;;;;;;2.76;100.00;102589.75;4989844;28;20124;-74
2023/02/10 07:33:21;;;;;;;45.67;14.97;;;;;;;2.75;100.00;102593.34;5004935;28;20042;-74
2023/02/10 07:35:47;;;;;;;63.67;19.43;;;;;;;2.78;100.00;102595.84;5013245;28;20296;-74
2023/02/10 07:38:12;;;;;;;47.70;16.98;;;;;;;2.86;100.00;102601.66;4985675;28;20132;-74
2023/02/10 07:40:38;;;;;;;49.80;19.00;;;;;;;2.88;100.00;102602.44;4983120;28;20030;-73
2023/02/10 07:43:03;;;;;;;57.15;17.98;;;;;;;2.86;100.00;102612.22;5003093;28;20304;-73
2023/02/10 07:45:36;;;;;;;44.72;16.35;;;;;;;2.92;100.00;102606.63;4972156;28;20053;-74
2023/02/10 07:48:02;;;;;;;44.70;17.43;;;;;;;2.95;100.00;102609.16;4985501;28;20033;-73
2023/02/10 07:50:27;;;;;;;61.47;17.10;;;;;;;3.00;100.00;102616.88;5000799;28;20040;-73
2023/02/10 07:52:54;;;;;;;47.83;16.77;;;;;;;3.06;100.00;102618.38;5041520;23;20478;-79
2023/02/10 07:55:19;;;;;;;;;;;;;;;3.02;100.00;102614.16;5024539;28;20295;-79
2023/02/10 07:57:44;;;;;;;54.80;16.38;;;;;;;3.00;100.00;102603.69;5007101;28;19959;-79
2023/02/10 08:00:12;;;;;;;64.53;19.23;;;;;;;3.06;100.00;102595.47;5016351;28;20045;-76
2023/02/10 08:02:41;;;;;;;52.40;16.42;;;;;;;3.04;100.00;102599.97;5004239;28;20092;-81
2023/02/10 08:05:06;;;;;;;42.70;15.82;;;;;;;3.12;100.00;102600.50;5007384;28;20021;-78
2023/02/10 08:07:31;;;;;;;57.50;17.73;;;;;;;3.08;100.00;102588.34;5002734;28;20037;-78
2023/02/10 08:09:57;;;;;;;66.53;16.73;;;;;;;3.04;100.00;102580.63;4993506;28;20040;-77
2023/02/10 08:12:22;;;;;;;62.23;16.90;;;;;;;3.10;100.00;102598.84;5003786;28;20072;-77
2023/02/10 08:14:47;;;;;;;46.27;16.00;;;;;;;3.09;100.00;102583.91;4987358;28;20065;-80
2023/02/10 08:17:13;;;;;;;60.63;19.33;;;;;;;3.09;100.00;102591.84;5022373;28;20298;-78
2023/02/10 08:19:38;;;;;;;62.90;17.10;;;;;;;3.06;100.00;102592.84;5023852;28;20193;-77
2023/02/10 08:22:04;;;;;;;60.37;16.63;;;;;;;3.12;100.00;102597.00;5006927;28;20030;-77
2023/02/10 08:24:30;;;;;;;48.92;17.10;;;;;;;3.09;100.00;102594.47;5020458;28;20571;-78
2023/02/10 08:26:56;;;;;;;68.70;17.70;;;;;;;3.12;100.00;102603.13;5023785;28;20065;-81
2023/02/10 08:29:21;;;;;;;59.53;17.23;;;;;;;3.19;100.00;102597.59;5021237;28;20385;-77
2023/02/10 08:31:51;;;;;;;56.20;15.33;;;;;;;3.25;100.00;102607.84;5003151;28;20061;-78
2023/02/10 08:34:18;;;;;;;67.97;19.15;;;;;;;3.14;100.00;102598.66;5004427;28;20041;-78
2023/02/10 08:36:44;;;;;;;49.58;17.77;;;;;;;3.29;100.00;102612.91;4997449;28;20060;-77
2023/02/10 08:39:11;;;;;;;42.45;18.00;;;;;;;3.29;100.00;102612.91;5004549;28;20037;-78
2023/02/10 08:41:37;;;;;;;49.40;17.02;;;;;;;3.31;100.00;102602.31;5019837;28;20033;-78
2023/02/10 08:44:02;;;;;;;49.22;14.82;;;;;;;3.34;100.00;102603.00;5004265;28;20509;-77
2023/02/10 08:46:28;;;;;;;51.57;15.43;;;;;;;3.32;100.00;102601.38;5019740;28;20029;-79
2023/02/10 08:48:53;;;;;;;62.00;19.17;;;;;;;3.24;100.00;102596.44;5004028;28;20414;-77
2023/02/10 08:51:18;;;;;;;49.83;16.77;;;;;;;3.36;100.00;102608.22;5021298;28;20276;-78
2023/02/10 08:53:44;;;;;;;50.20;17.90;;;;;;;3.38;100.00;102598.44;5020199;28;20276;-78
2023/02/10 08:56:13;;;;;;;48.73;15.73;;;;;;;3.40;100.00;102604.53;5020222;28;20049;-78
2023/02/10 08:58:40;;;;;;;59.50;18.23;;;;;;;3.40;100.00;102607.16;5001667;28;20045;-78
2023/02/10 09:01:15;;;;;;;56.95;16.95;;;;;;;3.48;100.00;102605.00;5020534;28;20040;-81
2023/02/10 09:03:41;;;;;;;70.17;16.30;;;;;;;3.47;100.00;102599.81;5020521;28;20045;-79
2023/02/10 09:06:15;;;;;;;59.55;17.92;;;;;;;3.61;100.00;102600.03;5021702;28;20475;-77
2023/02/10 09:08:42;;;;;;;49.20;14.88;;;;;;;3.68;100.00;102593.53;5004165;28;20502;-78
2023/02/10 09:11:08;;;;;;;50.80;15.77;;;;;;;3.62;100.00;102595.59;5021409;28;20041;-77
2023/02/10 09:13:33;;;;;;;48.47;14.00;;;;;;;3.58;100.00;102584.31;5001438;28;20036;-78
2023/02/10 09:16:00;;;;;;;45.67;15.73;;;;;;;3.53;100.00;102591.59;5004033;28;20528;-77
2023/02/10 09:18:26;;;;;;;50.33;15.80;;;;;;;3.39;100.00;102584.31;5002154;28;20039;-79
2023/02/10 09:20:51;;;;;;;44.03;16.70;;;;;;;3.48;100.00;102598.88;5002782;28;20030;-78
2023/02/10 09:23:16;;;;;;;48.17;15.33;;;;;;;3.58;100.00;102605.44;5003467;28;20091;-78
2023/02/10 09:25:42;;;;;;;57.13;16.80;;;;;;;3.57;100.00;102593.16;5001477;28;20041;-78
2023/02/10 09:28:08;;;;;;;41.33;14.07;;;;;;;3.60;100.00;102587.72;5021090;28;20033;-78
2023/02/10 09:30:34;;;;;;;46.67;15.10;;;;;;;3.64;100.00;102604.31;5001329;28;20936;-77
2023/02/10 09:32:59;;;;;;;64.25;16.38;;;;;;;3.70;100.00;102602.25;5021324;28;20026;-76
2023/02/10 09:35:25;;;;;;;44.87;14.63;;;;;;;3.68;100.00;102595.31;5001944;28;20029;-79
2023/02/10 09:37:50;;;;;;;40.97;16.73;;;;;;;3.58;100.00;102584.31;4986791;28;20465;-81
2023/02/10 09:40:21;;;;;;;52.38;15.80;;;;;;;3.67;100.00;102599.72;5003220;28;20391;-79
2023/02/10 09:43:06;;;;;;;56.17;16.10;;;;;;;3.67;100.00;102602.38;5020024;28;20057;-78
2023/02/10 09:45:37;;;;;;;53.80;18.67;;;;;;;3.73;100.00;102604.72;5017514;28;20034;-77
2023/02/10 09:48:17;;;;;;;55.58;15.77;;;;;;;3.67;100.00;102599.72;5018350;28;20041;-78
2023/02/10 09:50:47;;;;;;;45.75;16.25;;;;;;;3.75;100.00;102613.44;5001191;28;20117;-78
2023/02/10 09:53:23;;;;;;;48.58;17.05;;;;;;;3.72;100.00;102612.72;5003263;28;20038;-78
2023/02/10 09:55:51;;;;;;;;;;;;;;;3.79;100.00;102609.72;4986327;28;20129;-78
2023/02/10 09:58:25;;;;;;;46.42;16.23;;;;;;;3.71;100.00;102614.50;5003030;28;19909;-77
2023/02/10 10:01:10;;;;;;;48.58;15.73;;;;;;;3.81;100.00;102615.78;5018555;28;20793;-78
2023/02/10 10:03:44;;;;;;;46.53;15.93;;;;;;;3.77;100.00;102606.31;5000617;28;20320;-81
2023/02/10 10:06:18;;;;;;;52.85;17.30;;;;;;;3.76;100.00;102601.94;5003094;28;20413;-78
2023/02/10 10:09:08;;;;;;;37.88;15.15;;;;;;;3.71;100.00;102605.72;5001605;28;20041;-76
2023/02/10 10:11:51;;;;;;;43.90;18.23;;;;;;;3.73;100.00;102609.16;5022496;28;21792;-77
2023/02/10 10:14:26;;;;;;;34.83;14.20;;;;;;;3.81;100.00;102615.78;5003204;28;20149;-77
2023/02/10 10:17:22;;;;;;;49.55;16.45;;;;;;;3.86;100.00;102615.56;5002383;28;20084;-77
2023/02/10 10:20:25;;;;;;;43.92;15.70;;;;;;;3.79;100.00;102620.31;5018202;28;20066;-79
2023/02/10 10:23:05;;;;;;;44.42;15.45;;;;;;;3.87;100.00;102624.38;5019827;28;20076;-78
2023/02/10 10:25:57;;;;;;;31.63;15.15;;;;;;;3.73;100.00;102617.94;5002826;28;20077;-79
2023/02/10 10:28:42;;;;;;;39.33;15.85;;;;;;;3.83;100.00;102625.44;5019585;28;20037;-78
2023/02/10 10:31:13;;;;;;;44.50;17.92;;;;;;;3.78;100.00;102618.56;5005076;28;20060;-78
2023/02/10 10:33:50;;;;;;;48.45;17.85;;;;;;;3.73;100.00;102610.00;5000859;28;20422;-76
2023/02/10 10:36:18;;;;;;;43.80;16.63;;;;;;;3.69;100.00;102618.16;5002674;28;20033;-80
2023/02/10 10:38:51;;;;;;;60.50;17.90;;;;;;;3.76;100.00;102628.34;5017875;28;20117;-76
2023/02/10 10:41:16;;;;;;;44.63;17.75;;;;;;;3.91;100.00;102640.00;5005330;28;20048;-77
2023/02/10 10:43:48;;;;;;;62.33;19.52;;;;;;;4.04;100.00;102648.19;5004923;28;20034;-77
2023/02/10 10:46:33;;;;;;;53.78;18.30;;;;;;;3.95;100.00;102627.47;5024330;28;20706;-77
2023/02/10 10:48:59;;;;;;;49.35;17.40;;;;;;;4.05;100.00;102626.13;5014452;28;20123;-77
2023/02/10 10:51:25;;;;;;;51.75;20.17;;;;;;;3.92;100.00;102620.56;5019455;28;20143;-78
2023/02/10 10:53:53;;;;;;;40.88;16.67;;;;;;;4.00;100.00;102620.19;5022137;28;20041;-81
2023/02/10 10:56:34;;;;;;;44.88;16.45;;;;;;;4.04;100.00;102615.63;5007743;28;20033;-77
2023/02/10 10:59:02;;;;;;;45.85;17.27;;;;;;;3.97;100.00;102610.63;5018804;28;20029;-77
2023/02/10 11:01:37;;;;;;;41.60;17.48;;;;;;;4.11;100.00;102609.94;5020781;28;20021;-76
2023/02/10 11:04:21;;;;;;;45.95;17.17;;;;;;;4.03;100.00;102598.91;5014128;28;20309;-78
2023/02/10 11:06:50;;;;;;;49.03;18.02;;;;;;;4.00;100.00;102583.19;5004845;28;20042;-76
2023/02/10 11:09:27;;;;;;;54.20;20.08;;;;;;;4.32;100.00;102586.03;5024328;28;20354;-77
2023/02/10 11:12:01;;;;;;;46.85;15.68;;;;;;;4.49;100.00;102593.97;5005595;28;20095;-77
2023/02/10 11:14:30;;;;;;;42.42;14.77;;;;;;;4.89;100.00;102583.97;5004265;28;20037;-76
2023/02/10 11:17:04;;;;;;;42.15;15.00;;;;;;;4.96;100.00;102561.53;5023246;28;20628;-80
2023/02/10 11:19:34;;;;;;;34.75;14.02;;;;;;;4.82;100.00;102516.41;5020337;28;20033;-77